sensor_id;sensor_type;location;lat;lon;timestamp;pressure;altitude;pressure_sealevel;temperature;humidity
62725;BME280;49026;52.600;4.694;2023-05-27T00:02:15;103097.75;;;7.56;56.48
62725;BME280;49026;52.600;4.694;2023-05-27T00:04:40;103097.72;;;7.53;55.86
62725;BME280;49026;52.600;4.694;2023-05-27T00:07:08;103094.22;;;7.51;57.81
62725;BME280;49026;52.600;4.694;2023-05-27T00:09:33;103103.84;;;7.52;57.02
62725;BME280;49026;52.600;4.694;2023-05-27T00:12:01;103092.47;;;7.53;56.88
62725;BME280;49026;52.600;4.694;2023-05-27T00:14:27;103096.91;;;7.58;56.37
62725;BME280;49026;52.600;4.694;2023-05-27T00:16:54;103099.50;;;7.57;56.54
62725;BME280;49026;52.600;4.694;2023-05-27T00:19:22;103100.41;;;7.59;57.40
62725;BME280;49026;52.600;4.694;2023-05-27T00:21:48;103101.25;;;7.58;56.25
62725;BME280;49026;52.600;4.694;2023-05-27T00:24:17;103098.59;;;7.53;57.32
62725;BME280;49026;52.600;4.694;2023-05-27T00:26:42;103095.97;;;7.52;56.77
62725;BME280;49026;52.600;4.694;2023-05-27T00:29:07;103100.28;;;7.48;56.12
62725;BME280;49026;52.600;4.694;2023-05-27T00:31:33;103100.28;;;7.45;56.05
62725;BME280;49026;52.600;4.694;2023-05-27T00:33:58;103096.75;;;7.41;55.98
62725;BME280;49026;52.600;4.694;2023-05-27T00:36:23;103092.41;;;7.42;58.55
62725;BME280;49026;52.600;4.694;2023-05-27T00:38:49;103097.66;;;7.44;57.39
62725;BME280;49026;52.600;4.694;2023-05-27T00:41:14;103098.53;;;7.46;57.60
62725;BME280;49026;52.600;4.694;2023-05-27T00:43:40;103098.56;;;7.49;57.28
62725;BME280;49026;52.600;4.694;2023-05-27T00:46:05;103095.03;;;7.47;57.20
62725;BME280;49026;52.600;4.694;2023-05-27T00:48:31;103092.41;;;7.47;56.79
62725;BME280;49026;52.600;4.694;2023-05-27T00:50:56;103093.28;;;7.44;56.80
62725;BME280;49026;52.600;4.694;2023-05-27T00:53:23;103088.03;;;7.42;56.72
62725;BME280;49026;52.600;4.694;2023-05-27T00:55:52;103089.78;;;7.40;56.84
62725;BME280;49026;52.600;4.694;2023-05-27T00:58:17;103089.78;;;7.42;59.51
62725;BME280;49026;52.600;4.694;2023-05-27T01:00:46;103089.81;;;7.47;58.29
62725;BME280;49026;52.600;4.694;2023-05-27T01:03:12;103084.63;;;7.53;58.84
62725;BME280;49026;52.600;4.694;2023-05-27T01:05:37;103087.22;;;7.50;57.52
62725;BME280;49026;52.600;4.694;2023-05-27T01:10:49;103086.34;;;7.48;60.25
62725;BME280;49026;52.600;4.694;2023-05-27T01:13:52;103081.13;;;7.51;59.66
62725;BME280;49026;52.600;4.694;2023-05-27T01:16:23;103082.03;;;7.53;59.52
62725;BME280;49026;52.600;4.694;2023-05-27T01:18:52;103078.56;;;7.54;59.12
62725;BME280;49026;52.600;4.694;2023-05-27T01:21:22;103075.94;;;7.55;60.16
62725;BME280;49026;52.600;4.694;2023-05-27T01:23:50;103075.06;;;7.55;60.54
62725;BME280;49026;52.600;4.694;2023-05-27T01:26:16;103078.59;;;7.57;59.54
62725;BME280;49026;52.600;4.694;2023-05-27T01:28:44;103076.81;;;7.56;59.27
62725;BME280;49026;52.600;4.694;2023-05-27T01:31:23;103075.94;;;7.55;57.74
62725;BME280;49026;52.600;4.694;2023-05-27T01:33:59;103080.28;;;7.55;61.51
62725;BME280;49026;52.600;4.694;2023-05-27T01:36:26;103075.09;;;7.58;60.35
62725;BME280;49026;52.600;4.694;2023-05-27T01:38:56;103074.22;;;7.59;59.72
62725;BME280;49026;52.600;4.694;2023-05-27T01:41:23;103073.34;;;7.57;58.47
62725;BME280;49026;52.600;4.694;2023-05-27T01:43:51;103075.94;;;7.55;57.31
62725;BME280;49026;52.600;4.694;2023-05-27T01:46:17;103071.56;;;7.53;58.38
62725;BME280;49026;52.600;4.694;2023-05-27T01:48:43;103073.28;;;7.51;56.91
62725;BME280;49026;52.600;4.694;2023-05-27T01:51:08;103081.13;;;7.51;57.18
62725;BME280;49026;52.600;4.694;2023-05-27T01:53:34;103075.84;;;7.46;57.00
62725;BME280;49026;52.600;4.694;2023-05-27T01:55:59;103072.31;;;7.39;56.52
62725;BME280;49026;52.600;4.694;2023-05-27T01:58:25;103063.56;;;7.36;57.54
62725;BME280;49026;52.600;4.694;2023-05-27T02:00:51;103065.31;;;7.34;57.56
62725;BME280;49026;52.600;4.694;2023-05-27T02:03:16;103060.91;;;7.31;56.75
62725;BME280;49026;52.600;4.694;2023-05-27T02:05:41;103056.53;;;7.27;57.59
62725;BME280;49026;52.600;4.694;2023-05-27T02:08:08;103062.59;;;7.26;57.31
62725;BME280;49026;52.600;4.694;2023-05-27T02:10:33;103062.56;;;7.23;57.50
62725;BME280;49026;52.600;4.694;2023-05-27T02:13:01;103066.94;;;7.24;60.22
62725;BME280;49026;52.600;4.694;2023-05-27T02:15:26;103069.56;;;7.24;58.05
62725;BME280;49026;52.600;4.694;2023-05-27T02:17:53;103070.41;;;7.23;57.50
62725;BME280;49026;52.600;4.694;2023-05-27T02:20:24;103066.91;;;7.21;57.57
62725;BME280;49026;52.600;4.694;2023-05-27T02:22:53;103066.00;;;7.17;57.53
62725;BME280;49026;52.600;4.694;2023-05-27T02:25:18;103065.13;;;7.14;57.58
62725;BME280;49026;52.600;4.694;2023-05-27T02:27:44;103067.69;;;7.11;57.74
62725;BME280;49026;52.600;4.694;2023-05-27T02:30:14;103068.53;;;7.08;57.41
62725;BME280;49026;52.600;4.694;2023-05-27T02:32:40;103071.09;;;7.02;57.59
62725;BME280;49026;52.600;4.694;2023-05-27T02:35:05;103066.66;;;6.95;57.10
62725;BME280;49026;52.600;4.694;2023-05-27T02:37:31;103066.56;;;6.87;57.29
62725;BME280;49026;52.600;4.694;2023-05-27T02:40:01;103070.88;;;6.82;57.16
62725;BME280;49026;52.600;4.694;2023-05-27T02:42:26;103068.19;;;6.76;56.88
62725;BME280;49026;52.600;4.694;2023-05-27T02:44:51;103057.66;;;6.70;56.97
62725;BME280;49026;52.600;4.694;2023-05-27T02:47:19;103058.44;;;6.62;58.24
62725;BME280;49026;52.600;4.694;2023-05-27T02:49:44;103054.94;;;6.60;57.19
62725;BME280;49026;52.600;4.694;2023-05-27T02:52:12;103062.75;;;6.57;57.77
62725;BME280;49026;52.600;4.694;2023-05-27T02:54:40;103057.47;;;6.54;58.04
62725;BME280;49026;52.600;4.694;2023-05-27T02:57:05;103054.00;;;6.54;57.14
62725;BME280;49026;52.600;4.694;2023-05-27T02:59:31;103055.75;;;6.56;57.56
62725;BME280;49026;52.600;4.694;2023-05-27T03:01:57;103047.97;;;6.59;57.63
62725;BME280;49026;52.600;4.694;2023-05-27T03:04:24;103051.50;;;6.64;57.45
62725;BME280;49026;52.600;4.694;2023-05-27T03:06:50;103052.41;;;6.65;57.09
62725;BME280;49026;52.600;4.694;2023-05-27T03:09:15;103052.41;;;6.65;57.15
62725;BME280;49026;52.600;4.694;2023-05-27T03:11:41;103059.31;;;6.63;57.41
62725;BME280;49026;52.600;4.694;2023-05-27T03:14:06;103061.91;;;6.61;57.45
62725;BME280;49026;52.600;4.694;2023-05-27T03:16:31;103060.97;;;6.56;57.01
62725;BME280;49026;52.600;4.694;2023-05-27T03:18:57;103063.56;;;6.53;57.04
62725;BME280;49026;52.600;4.694;2023-05-27T03:21:25;103053.97;;;6.51;57.17
62725;BME280;49026;52.600;4.694;2023-05-27T03:23:50;103049.59;;;6.51;58.08
62725;BME280;49026;52.600;4.694;2023-05-27T03:26:15;103051.31;;;6.49;57.55
62725;BME280;49026;52.600;4.694;2023-05-27T03:28:41;103055.66;;;6.47;57.66
62725;BME280;49026;52.600;4.694;2023-05-27T03:31:06;103049.53;;;6.46;57.24
62725;BME280;49026;52.600;4.694;2023-05-27T03:33:31;103049.53;;;6.46;57.68
62725;BME280;49026;52.600;4.694;2023-05-27T03:35:57;103051.31;;;6.47;57.79
62725;BME280;49026;52.600;4.694;2023-05-27T03:38:22;103044.31;;;6.45;57.94
62725;BME280;49026;52.600;4.694;2023-05-27T03:40:47;103047.78;;;6.44;58.11
62725;BME280;49026;52.600;4.694;2023-05-27T03:43:15;103047.81;;;6.47;58.26
62725;BME280;49026;52.600;4.694;2023-05-27T03:45:40;103046.94;;;6.48;59.55
62725;BME280;49026;52.600;4.694;2023-05-27T03:48:06;103048.72;;;6.51;58.17
62725;BME280;49026;52.600;4.694;2023-05-27T03:50:32;103046.97;;;6.49;58.22
62725;BME280;49026;52.600;4.694;2023-05-27T03:52:58;103046.94;;;6.48;58.53
62725;BME280;49026;52.600;4.694;2023-05-27T03:55:23;103040.00;;;6.48;58.38
62725;BME280;49026;52.600;4.694;2023-05-27T03:57:48;103045.25;;;6.50;57.34
62725;BME280;49026;52.600;4.694;2023-05-27T04:00:14;103039.19;;;6.53;57.58
62725;BME280;49026;52.600;4.694;2023-05-27T04:02:41;103037.47;;;6.56;57.96
62725;BME280;49026;52.600;4.694;2023-05-27T04:05:07;103029.69;;;6.59;57.94
62725;BME280;49026;52.600;4.694;2023-05-27T04:07:35;103029.72;;;6.62;58.66
62725;BME280;49026;52.600;4.694;2023-05-27T04:10:04;103024.56;;;6.68;58.06
62725;BME280;49026;52.600;4.694;2023-05-27T04:12:30;103018.63;;;6.82;58.61
62725;BME280;49026;52.600;4.694;2023-05-27T04:14:57;103026.63;;;6.99;58.13
62725;BME280;49026;52.600;4.694;2023-05-27T04:17:23;103027.66;;;7.18;58.85
62725;BME280;49026;52.600;4.694;2023-05-27T04:19:48;103026.09;;;7.37;58.78
62725;BME280;49026;52.600;4.694;2023-05-27T04:22:14;103031.50;;;7.63;59.88
62725;BME280;49026;52.600;4.694;2023-05-27T04:24:39;103032.59;;;7.96;59.43
62725;BME280;49026;52.600;4.694;2023-05-27T04:27:06;103017.06;;;8.30;59.38
62725;BME280;49026;52.600;4.694;2023-05-27T04:29:34;103015.44;;;8.60;58.98
62725;BME280;49026;52.600;4.694;2023-05-27T04:31:59;103025.13;;;8.92;61.75
62725;BME280;49026;52.600;4.694;2023-05-27T04:34:28;103024.28;;;9.20;59.70
62725;BME280;49026;52.600;4.694;2023-05-27T04:36:53;103023.44;;;9.49;59.20
62725;BME280;49026;52.600;4.694;2023-05-27T04:39:19;103019.91;;;9.75;61.08
62725;BME280;49026;52.600;4.694;2023-05-27T04:41:44;103021.59;;;9.99;59.62
62725;BME280;49026;52.600;4.694;2023-05-27T04:44:13;103018.88;;;10.25;60.41
62725;BME280;49026;52.600;4.694;2023-05-27T04:46:38;103021.44;;;10.50;59.51
62725;BME280;49026;52.600;4.694;2023-05-27T04:49:09;103023.94;;;10.73;60.87
62725;BME280;49026;52.600;4.694;2023-05-27T04:51:35;103019.41;;;10.92;60.15
62725;BME280;49026;52.600;4.694;2023-05-27T04:54:01;103009.63;;;11.12;60.89
62725;BME280;49026;52.600;4.694;2023-05-27T04:56:26;103010.34;;;11.33;60.02
62725;BME280;49026;52.600;4.694;2023-05-27T04:58:52;103009.25;;;11.56;60.64
62725;BME280;49026;52.600;4.694;2023-05-27T05:01:17;103010.88;;;11.67;61.65
62725;BME280;49026;52.600;4.694;2023-05-27T05:03:46;103009.06;;;11.76;60.75
62725;BME280;49026;52.600;4.694;2023-05-27T05:06:27;103001.06;;;11.86;61.57
62725;BME280;49026;52.600;4.694;2023-05-27T05:08:53;103006.22;;;11.96;61.38
62725;BME280;49026;52.600;4.694;2023-05-27T05:11:18;103008.72;;;12.10;60.05
62725;BME280;49026;52.600;4.694;2023-05-27T05:13:43;103004.09;;;12.29;60.44
62725;BME280;49026;52.600;4.694;2023-05-27T05:16:08;103004.03;;;12.35;60.22
62725;BME280;49026;52.600;4.694;2023-05-27T05:18:34;103004.28;;;12.13;60.84
62725;BME280;49026;52.600;4.694;2023-05-27T05:20:59;103003.06;;;11.63;60.79
62725;BME280;49026;52.600;4.694;2023-05-27T05:23:25;103006.06;;;11.23;62.22
62725;BME280;49026;52.600;4.694;2023-05-27T05:25:50;103000.97;;;10.98;62.35
62725;BME280;49026;52.600;4.694;2023-05-27T05:28:23;103000.25;;;10.74;63.18
62725;BME280;49026;52.600;4.694;2023-05-27T05:30:48;103001.25;;;10.55;63.23
62725;BME280;49026;52.600;4.694;2023-05-27T05:33:16;102996.72;;;10.75;61.83
62725;BME280;49026;52.600;4.694;2023-05-27T05:35:41;102991.19;;;11.16;61.58
62725;BME280;49026;52.600;4.694;2023-05-27T05:38:06;102987.69;;;11.13;60.83
62725;BME280;49026;52.600;4.694;2023-05-27T05:40:32;102988.41;;;11.32;61.42
62725;BME280;49026;52.600;4.694;2023-05-27T05:42:59;102979.63;;;11.32;62.70
62725;BME280;49026;52.600;4.694;2023-05-27T05:45:25;102984.72;;;11.52;62.09
62725;BME280;49026;52.600;4.694;2023-05-27T05:47:50;102981.84;;;11.75;61.54
62725;BME280;49026;52.600;4.694;2023-05-27T05:50:18;102978.00;;;12.07;60.47
62725;BME280;49026;52.600;4.694;2023-05-27T05:52:46;102974.38;;;12.14;60.21
62725;BME280;49026;52.600;4.694;2023-05-27T05:55:13;102979.78;;;12.05;60.84
62725;BME280;49026;52.600;4.694;2023-05-27T05:57:38;102984.09;;;12.11;61.81
62725;BME280;49026;52.600;4.694;2023-05-27T06:00:04;102982.50;;;11.97;61.15
62725;BME280;49026;52.600;4.694;2023-05-27T06:02:32;102988.78;;;11.82;61.42
62725;BME280;49026;52.600;4.694;2023-05-27T06:04:57;102981.81;;;11.78;63.35
62725;BME280;49026;52.600;4.694;2023-05-27T06:07:23;102982.56;;;11.93;62.64
62725;BME280;49026;52.600;4.694;2023-05-27T06:09:48;102980.72;;;11.99;65.85
62725;BME280;49026;52.600;4.694;2023-05-27T06:12:13;102970.03;;;12.13;62.95
62725;BME280;49026;52.600;4.694;2023-05-27T06:14:39;102976.88;;;12.28;62.57
62725;BME280;49026;52.600;4.694;2023-05-27T06:17:04;102973.09;;;12.46;61.57
62725;BME280;49026;52.600;4.694;2023-05-27T06:19:30;102980.75;;;12.65;61.56
62725;BME280;49026;52.600;4.694;2023-05-27T06:21:55;102982.44;;;12.69;62.87
62725;BME280;49026;52.600;4.694;2023-05-27T06:24:20;102971.97;;;12.63;60.48
62725;BME280;49026;52.600;4.694;2023-05-27T06:26:46;102980.13;;;12.47;61.24
62725;BME280;49026;52.600;4.694;2023-05-27T06:29:11;102976.75;;;12.36;62.43
62725;BME280;49026;52.600;4.694;2023-05-27T06:31:36;102980.47;;;12.19;62.25
62725;BME280;49026;52.600;4.694;2023-05-27T06:34:04;102984.19;;;12.04;62.32
62725;BME280;49026;52.600;4.694;2023-05-27T06:36:29;102986.03;;;11.98;63.02
62725;BME280;49026;52.600;4.694;2023-05-27T06:38:55;102978.88;;;12.06;62.06
62725;BME280;49026;52.600;4.694;2023-05-27T06:41:21;102981.38;;;12.18;62.22
62725;BME280;49026;52.600;4.694;2023-05-27T06:43:46;102983.03;;;12.26;62.31
62725;BME280;49026;52.600;4.694;2023-05-27T06:46:14;102988.28;;;12.29;62.38
62725;BME280;49026;52.600;4.694;2023-05-27T06:48:39;102985.47;;;12.41;61.81
62725;BME280;49026;52.600;4.694;2023-05-27T06:51:05;102987.53;;;12.81;62.21
62725;BME280;49026;52.600;4.694;2023-05-27T06:53:31;102980.16;;;13.05;61.57
62725;BME280;49026;52.600;4.694;2023-05-27T06:55:56;102978.16;;;13.18;60.94
62725;BME280;49026;52.600;4.694;2023-05-27T06:58:21;102981.06;;;13.02;60.27
62725;BME280;49026;52.600;4.694;2023-05-27T07:00:47;102975.13;;;12.86;61.11
62725;BME280;49026;52.600;4.694;2023-05-27T07:03:12;102970.59;;;12.96;60.97
62725;BME280;49026;52.600;4.694;2023-05-27T07:05:37;102978.34;;;13.07;60.76
62725;BME280;49026;52.600;4.694;2023-05-27T07:08:03;102974.88;;;13.03;60.22
62725;BME280;49026;52.600;4.694;2023-05-27T07:10:28;102967.84;;;13.04;60.79
62725;BME280;49026;52.600;4.694;2023-05-27T07:12:53;102964.50;;;13.45;61.34
62725;BME280;49026;52.600;4.694;2023-05-27T07:15:19;102969.03;;;13.85;60.75
62725;BME280;49026;52.600;4.694;2023-05-27T07:17:49;102964.22;;;14.04;59.93
62725;BME280;49026;52.600;4.694;2023-05-27T07:20:14;102962.50;;;14.03;59.71
62725;BME280;49026;52.600;4.694;2023-05-27T07:22:39;102957.13;;;14.06;59.89
62725;BME280;49026;52.600;4.694;2023-05-27T07:25:05;102959.88;;;14.02;59.47
62725;BME280;49026;52.600;4.694;2023-05-27T07:27:30;102951.84;;;14.06;60.01
62725;BME280;49026;52.600;4.694;2023-05-27T07:29:55;102957.22;;;14.03;59.50
62725;BME280;49026;52.600;4.694;2023-05-27T07:32:21;102945.25;;;13.85;59.45
62725;BME280;49026;52.600;4.694;2023-05-27T07:34:47;102941.75;;;13.85;60.21
62725;BME280;49026;52.600;4.694;2023-05-27T07:37:12;102952.97;;;13.95;59.08
62725;BME280;49026;52.600;4.694;2023-05-27T07:39:38;102945.81;;;14.00;60.34
62725;BME280;49026;52.600;4.694;2023-05-27T07:42:03;102951.69;;;14.14;60.38
62725;BME280;49026;52.600;4.694;2023-05-27T07:44:31;102934.69;;;14.26;59.96
62725;BME280;49026;52.600;4.694;2023-05-27T07:46:56;102936.78;;;14.51;60.06
62725;BME280;49026;52.600;4.694;2023-05-27T07:49:22;102939.84;;;14.71;60.19
62725;BME280;49026;52.600;4.694;2023-05-27T07:51:47;102937.34;;;15.01;59.99
62725;BME280;49026;52.600;4.694;2023-05-27T07:54:12;102933.31;;;15.21;60.36
62725;BME280;49026;52.600;4.694;2023-05-27T07:56:38;102921.56;;;15.64;61.21
62725;BME280;49026;52.600;4.694;2023-05-27T07:59:06;102920.59;;;15.98;60.37
62725;BME280;49026;52.600;4.694;2023-05-27T08:01:31;102932.56;;;16.11;58.67
62725;BME280;49026;52.600;4.694;2023-05-27T08:03:58;102922.22;;;16.02;59.05
62725;BME280;49026;52.600;4.694;2023-05-27T08:06:24;102917.22;;;15.92;59.00
62725;BME280;49026;52.600;4.694;2023-05-27T08:08:49;102915.56;;;15.88;59.44
62725;BME280;49026;52.600;4.694;2023-05-27T08:11:14;102904.31;;;16.10;59.84
62725;BME280;49026;52.600;4.694;2023-05-27T08:13:40;102907.09;;;16.34;60.28
62725;BME280;49026;52.600;4.694;2023-05-27T08:16:07;102908.41;;;16.48;59.86
62725;BME280;49026;52.600;4.694;2023-05-27T08:18:36;102901.06;;;16.57;60.44
62725;BME280;49026;52.600;4.694;2023-05-27T08:21:05;102906.06;;;16.39;59.35
62725;BME280;49026;52.600;4.694;2023-05-27T08:23:30;102893.47;;;16.18;58.87
62725;BME280;49026;52.600;4.694;2023-05-27T08:25:55;102893.78;;;16.07;59.76
62725;BME280;49026;52.600;4.694;2023-05-27T08:28:21;102886.94;;;16.00;58.79
62725;BME280;49026;52.600;4.694;2023-05-27T08:30:46;102889.13;;;15.85;58.35
62725;BME280;49026;52.600;4.694;2023-05-27T08:33:12;102889.84;;;15.61;58.25
62725;BME280;49026;52.600;4.694;2023-05-27T08:35:38;102882.38;;;15.44;58.45
62725;BME280;49026;52.600;4.694;2023-05-27T08:38:06;102873.06;;;15.29;58.64
62725;BME280;49026;52.600;4.694;2023-05-27T08:40:32;102880.34;;;15.21;58.52
62725;BME280;49026;52.600;4.694;2023-05-27T08:42:57;102875.09;;;15.19;59.00
62725;BME280;49026;52.600;4.694;2023-05-27T08:45:22;102876.63;;;15.28;59.29
62725;BME280;49026;52.600;4.694;2023-05-27T08:47:48;102860.03;;;15.21;58.56
62725;BME280;49026;52.600;4.694;2023-05-27T08:50:18;102863.81;;;15.12;58.94
62725;BME280;49026;52.600;4.694;2023-05-27T08:52:51;102864.47;;;15.21;59.46
62725;BME280;49026;52.600;4.694;2023-05-27T08:55:19;102863.13;;;15.37;60.16
62725;BME280;49026;52.600;4.694;2023-05-27T08:57:54;102857.72;;;15.71;59.85
62725;BME280;49026;52.600;4.694;2023-05-27T09:00:22;102858.50;;;16.05;59.33
62725;BME280;49026;52.600;4.694;2023-05-27T09:02:48;102855.34;;;16.20;58.97
62725;BME280;49026;52.600;4.694;2023-05-27T09:05:14;102850.69;;;16.28;58.98
62725;BME280;49026;52.600;4.694;2023-05-27T09:07:44;102847.66;;;16.41;59.12
62725;BME280;49026;52.600;4.694;2023-05-27T09:10:10;102850.53;;;16.60;58.94
62725;BME280;49026;52.600;4.694;2023-05-27T09:12:36;102837.69;;;16.74;57.97
62725;BME280;49026;52.600;4.694;2023-05-27T09:15:04;102849.81;;;16.81;55.87
62725;BME280;49026;52.600;4.694;2023-05-27T09:17:30;102844.75;;;17.00;57.84
62725;BME280;49026;52.600;4.694;2023-05-27T09:19:56;102842.97;;;17.26;58.28
62725;BME280;49026;52.600;4.694;2023-05-27T09:22:33;102837.44;;;17.56;59.10
62725;BME280;49026;52.600;4.694;2023-05-27T09:25:00;102832.22;;;17.76;57.83
62725;BME280;49026;52.600;4.694;2023-05-27T09:27:31;102831.94;;;17.84;55.58
62725;BME280;49026;52.600;4.694;2023-05-27T09:29:58;102828.56;;;17.79;53.04
62725;BME280;49026;52.600;4.694;2023-05-27T09:32:34;102829.09;;;17.65;56.85
62725;BME280;49026;52.600;4.694;2023-05-27T09:35:01;102828.28;;;17.87;59.04
62725;BME280;49026;52.600;4.694;2023-05-27T09:37:27;102830.47;;;17.99;56.48
62725;BME280;49026;52.600;4.694;2023-05-27T09:40:15;102823.84;;;17.87;52.56
62725;BME280;49026;52.600;4.694;2023-05-27T09:42:48;102817.66;;;17.63;56.20
62725;BME280;49026;52.600;4.694;2023-05-27T09:45:21;102813.16;;;17.65;57.43
62725;BME280;49026;52.600;4.694;2023-05-27T09:47:51;102816.09;;;17.81;57.02
62725;BME280;49026;52.600;4.694;2023-05-27T09:50:17;102816.84;;;18.07;56.95
62725;BME280;49026;52.600;4.694;2023-05-27T09:52:44;102816.72;;;18.32;57.31
62725;BME280;49026;52.600;4.694;2023-05-27T09:55:11;102805.16;;;18.74;59.00
62725;BME280;49026;52.600;4.694;2023-05-27T09:57:38;102819.25;;;18.98;56.85
62725;BME280;49026;52.600;4.694;2023-05-27T10:00:05;102811.25;;;18.78;56.34
62725;BME280;49026;52.600;4.694;2023-05-27T10:02:43;102807.16;;;18.48;56.34
62725;BME280;49026;52.600;4.694;2023-05-27T10:05:12;102807.28;;;18.25;56.56
62725;BME280;49026;52.600;4.694;2023-05-27T10:07:39;102802.00;;;18.23;56.98
62725;BME280;49026;52.600;4.694;2023-05-27T10:10:07;102800.75;;;18.32;56.56
62725;BME280;49026;52.600;4.694;2023-05-27T10:12:40;102791.38;;;18.44;56.21
62725;BME280;49026;52.600;4.694;2023-05-27T10:15:20;102790.22;;;18.29;54.77
62725;BME280;49026;52.600;4.694;2023-05-27T10:17:51;102786.78;;;18.27;56.43
62725;BME280;49026;52.600;4.694;2023-05-27T10:20:48;102786.94;;;18.65;52.73
62725;BME280;49026;52.600;4.694;2023-05-27T10:23:24;102781.81;;;18.60;55.15
62725;BME280;49026;52.600;4.694;2023-05-27T10:26:07;102781.69;;;18.43;55.00
62725;BME280;49026;52.600;4.694;2023-05-27T10:28:37;102781.31;;;18.30;56.09
62725;BME280;49026;52.600;4.694;2023-05-27T10:31:17;102779.16;;;18.40;55.99
62725;BME280;49026;52.600;4.694;2023-05-27T10:33:44;102773.47;;;18.47;55.30
62725;BME280;49026;52.600;4.694;2023-05-27T10:36:13;102766.03;;;18.56;56.03
62725;BME280;49026;52.600;4.694;2023-05-27T10:38:40;102759.09;;;18.72;56.50
62725;BME280;49026;52.600;4.694;2023-05-27T10:41:08;102758.91;;;18.77;55.54
62725;BME280;49026;52.600;4.694;2023-05-27T10:43:35;102757.09;;;18.77;55.75
62725;BME280;49026;52.600;4.694;2023-05-27T10:46:12;102754.53;;;18.96;55.48
62725;BME280;49026;52.600;4.694;2023-05-27T10:48:38;102748.19;;;18.99;54.91
62725;BME280;49026;52.600;4.694;2023-05-27T10:51:05;102741.38;;;19.31;55.31
62725;BME280;49026;52.600;4.694;2023-05-27T10:53:34;102732.75;;;19.62;54.80
62725;BME280;49026;52.600;4.694;2023-05-27T10:56:00;102739.94;;;19.98;54.46
62725;BME280;49026;52.600;4.694;2023-05-27T10:58:26;102740.56;;;20.21;55.05
62725;BME280;49026;52.600;4.694;2023-05-27T11:00:54;102733.66;;;20.34;53.89
62725;BME280;49026;52.600;4.694;2023-05-27T11:03:25;102729.59;;;20.27;54.42
62725;BME280;49026;52.600;4.694;2023-05-27T11:06:00;102731.78;;;20.02;43.21
62725;BME280;49026;52.600;4.694;2023-05-27T11:08:27;102719.72;;;19.75;52.90
62725;BME280;49026;52.600;4.694;2023-05-27T11:10:59;102716.63;;;19.85;54.41
62725;BME280;49026;52.600;4.694;2023-05-27T11:13:35;102707.44;;;20.08;54.53
62725;BME280;49026;52.600;4.694;2023-05-27T11:16:05;102708.31;;;20.43;53.66
62725;BME280;49026;52.600;4.694;2023-05-27T11:18:42;102705.38;;;20.48;53.23
62725;BME280;49026;52.600;4.694;2023-05-27T11:21:11;102707.44;;;20.43;51.48
62725;BME280;49026;52.600;4.694;2023-05-27T11:23:39;102707.34;;;20.62;52.04
62725;BME280;49026;52.600;4.694;2023-05-27T11:26:24;102704.53;;;20.98;52.56
62725;BME280;49026;52.600;4.694;2023-05-27T11:28:55;102695.53;;;20.99;52.64
62725;BME280;49026;52.600;4.694;2023-05-27T11:31:29;102693.63;;;20.85;51.62
62725;BME280;49026;52.600;4.694;2023-05-27T11:33:57;102682.88;;;20.87;52.21
62725;BME280;49026;52.600;4.694;2023-05-27T11:36:26;102681.19;;;20.68;52.59
62725;BME280;49026;52.600;4.694;2023-05-27T11:38:58;102686.19;;;20.75;53.52
62725;BME280;49026;52.600;4.694;2023-05-27T11:41:27;102670.19;;;20.90;53.20
62725;BME280;49026;52.600;4.694;2023-05-27T11:43:57;102672.03;;;21.22;52.94
62725;BME280;49026;52.600;4.694;2023-05-27T11:46:32;102674.25;;;21.45;53.09
62725;BME280;49026;52.600;4.694;2023-05-27T11:49:00;102663.63;;;21.76;51.82
62725;BME280;49026;52.600;4.694;2023-05-27T11:51:26;102657.03;;;21.81;51.52
62725;BME280;49026;52.600;4.694;2023-05-27T11:53:54;102643.88;;;21.93;51.25
62725;BME280;49026;52.600;4.694;2023-05-27T11:56:19;102656.91;;;21.69;50.29
62725;BME280;49026;52.600;4.694;2023-05-27T11:58:45;102653.03;;;21.42;50.67
62725;BME280;49026;52.600;4.694;2023-05-27T12:01:10;102654.44;;;21.34;50.41
62725;BME280;49026;52.600;4.694;2023-05-27T12:03:36;102639.28;;;21.64;50.94
62725;BME280;49026;52.600;4.694;2023-05-27T12:06:02;102643.22;;;21.73;50.58
62725;BME280;49026;52.600;4.694;2023-05-27T12:08:28;102636.03;;;21.43;50.67
62725;BME280;49026;52.600;4.694;2023-05-27T12:10:53;102635.19;;;21.27;50.60
62725;BME280;49026;52.600;4.694;2023-05-27T12:13:20;102623.47;;;21.14;50.19
62725;BME280;49026;52.600;4.694;2023-05-27T12:15:49;102625.19;;;21.15;51.10
62725;BME280;49026;52.600;4.694;2023-05-27T12:18:14;102621.53;;;21.63;51.33
62725;BME280;49026;52.600;4.694;2023-05-27T12:20:40;102616.22;;;21.78;49.02
62725;BME280;49026;52.600;4.694;2023-05-27T12:23:05;102625.50;;;21.87;50.59
62725;BME280;49026;52.600;4.694;2023-05-27T12:25:30;102619.56;;;21.81;49.29
62725;BME280;49026;52.600;4.694;2023-05-27T12:27:58;102628.19;;;21.87;49.60
62725;BME280;49026;52.600;4.694;2023-05-27T12:30:24;102616.13;;;22.24;50.35
62725;BME280;49026;52.600;4.694;2023-05-27T12:32:49;102608.09;;;22.53;48.85
62725;BME280;49026;52.600;4.694;2023-05-27T12:35:14;102612.84;;;22.76;49.07
62725;BME280;49026;52.600;4.694;2023-05-27T12:37:40;102610.22;;;23.04;48.63
62725;BME280;49026;52.600;4.694;2023-05-27T12:40:06;102592.72;;;23.25;49.18
62725;BME280;49026;52.600;4.694;2023-05-27T12:42:39;102599.22;;;23.36;47.44
62725;BME280;49026;52.600;4.694;2023-05-27T12:45:08;102597.78;;;23.17;47.56
62725;BME280;49026;52.600;4.694;2023-05-27T12:47:34;102601.03;;;22.93;46.91
62725;BME280;49026;52.600;4.694;2023-05-27T12:49:59;102607.97;;;22.83;47.17
62725;BME280;49026;52.600;4.694;2023-05-27T12:52:27;102599.69;;;23.01;46.71
62725;BME280;49026;52.600;4.694;2023-05-27T12:54:53;102598.72;;;23.02;45.57
62725;BME280;49026;52.600;4.694;2023-05-27T12:57:21;102594.38;;;22.72;46.15